sensor_id;sensor_type;location;lat;lon;timestamp;P1;durP1;ratioP1;P2;durP2;ratioP2
19973;SDS011;10148;47.694;9.442;2023-02-28T00:00:08;3.97;;;3.50;;
19973;SDS011;10148;47.694;9.442;2023-02-28T00:02:38;6.37;;;4.33;;
19973;SDS011;10148;47.694;9.442;2023-02-28T00:05:05;9.43;;;3.77;;
19973;SDS011;10148;47.694;9.442;2023-02-28T00:07:32;5.40;;;3.90;;
19973;SDS011;10148;47.694;9.442;2023-02-28T00:09:57;4.60;;;4.00;;
19973;SDS011;10148;47.694;9.442;2023-02-28T00:12:23;5.93;;;4.07;;
19973;SDS011;10148;47.694;9.442;2023-02-28T00:14:49;8.27;;;4.57;;
19973;SDS011;10148;47.694;9.442;2023-02-28T00:17:15;5.00;;;4.20;;
19973;SDS011;10148;47.694;9.442;2023-02-28T00:19:43;5.47;;;3.77;;
19973;SDS011;10148;47.694;9.442;2023-02-28T00:22:08;9.00;;;4.13;;
19973;SDS011;10148;47.694;9.442;2023-02-28T00:24:34;5.03;;;3.27;;
19973;SDS011;10148;47.694;9.442;2023-02-28T00:27:00;6.80;;;4.07;;
19973;SDS011;10148;47.694;9.442;2023-02-28T00:29:25;5.97;;;4.00;;
19973;SDS011;10148;47.694;9.442;2023-02-28T00:31:51;6.77;;;4.17;;
19973;SDS011;10148;47.694;9.442;2023-02-28T00:34:16;5.23;;;4.20;;
19973;SDS011;10148;47.694;9.442;2023-02-28T00:36:41;6.60;;;3.97;;
19973;SDS011;10148;47.694;9.442;2023-02-28T00:39:10;7.87;;;4.07;;
19973;SDS011;10148;47.694;9.442;2023-02-28T00:41:36;4.67;;;3.90;;
19973;SDS011;10148;47.694;9.442;2023-02-28T00:44:02;6.30;;;3.87;;
19973;SDS011;10148;47.694;9.442;2023-02-28T00:46:27;4.70;;;3.57;;
19973;SDS011;10148;47.694;9.442;2023-02-28T00:48:53;6.03;;;3.90;;
19973;SDS011;10148;47.694;9.442;2023-02-28T00:51:18;4.57;;;3.60;;
19973;SDS011;10148;47.694;9.442;2023-02-28T00:53:44;4.57;;;3.73;;
19973;SDS011;10148;47.694;9.442;2023-02-28T00:56:09;6.30;;;4.03;;
19973;SDS011;10148;47.694;9.442;2023-02-28T00:58:35;5.90;;;3.50;;
19973;SDS011;10148;47.694;9.442;2023-02-28T01:01:00;6.23;;;3.93;;
19973;SDS011;10148;47.694;9.442;2023-02-28T01:03:26;7.23;;;4.27;;
19973;SDS011;10148;47.694;9.442;2023-02-28T01:05:52;5.17;;;3.87;;
19973;SDS011;10148;47.694;9.442;2023-02-28T01:08:20;5.17;;;3.87;;
19973;SDS011;10148;47.694;9.442;2023-02-28T01:10:46;5.47;;;4.03;;
19973;SDS011;10148;47.694;9.442;2023-02-28T01:13:12;6.23;;;3.73;;
19973;SDS011;10148;47.694;9.442;2023-02-28T01:15:42;8.13;;;3.67;;
19973;SDS011;10148;47.694;9.442;2023-02-28T01:18:11;5.73;;;3.87;;
19973;SDS011;10148;47.694;9.442;2023-02-28T01:20:37;7.07;;;3.63;;
19973;SDS011;10148;47.694;9.442;2023-02-28T01:23:03;5.70;;;4.17;;
19973;SDS011;10148;47.694;9.442;2023-02-28T01:25:28;5.77;;;3.70;;
19973;SDS011;10148;47.694;9.442;2023-02-28T01:27:54;7.70;;;3.87;;
19973;SDS011;10148;47.694;9.442;2023-02-28T01:30:19;3.93;;;2.90;;
19973;SDS011;10148;47.694;9.442;2023-02-28T01:32:45;5.60;;;3.27;;
19973;SDS011;10148;47.694;9.442;2023-02-28T01:35:10;6.63;;;3.77;;
19973;SDS011;10148;47.694;9.442;2023-02-28T01:37:36;6.60;;;3.33;;
19973;SDS011;10148;47.694;9.442;2023-02-28T01:40:02;7.93;;;4.57;;
19973;SDS011;10148;47.694;9.442;2023-02-28T01:42:28;5.80;;;3.67;;
19973;SDS011;10148;47.694;9.442;2023-02-28T01:47:23;5.47;;;3.93;;
19973;SDS011;10148;47.694;9.442;2023-02-28T01:49:54;5.17;;;3.87;;
19973;SDS011;10148;47.694;9.442;2023-02-28T01:52:20;9.10;;;4.07;;
19973;SDS011;10148;47.694;9.442;2023-02-28T01:54:51;4.30;;;3.40;;
19973;SDS011;10148;47.694;9.442;2023-02-28T01:57:19;3.50;;;3.20;;
19973;SDS011;10148;47.694;9.442;2023-02-28T01:59:52;5.90;;;3.70;;
19973;SDS011;10148;47.694;9.442;2023-02-28T02:02:23;6.83;;;4.10;;
19973;SDS011;10148;47.694;9.442;2023-02-28T02:04:51;6.17;;;4.30;;
19973;SDS011;10148;47.694;9.442;2023-02-28T02:07:32;5.87;;;3.60;;
19973;SDS011;10148;47.694;9.442;2023-02-28T02:10:11;4.87;;;3.97;;
19973;SDS011;10148;47.694;9.442;2023-02-28T02:13:00;6.70;;;4.00;;
19973;SDS011;10148;47.694;9.442;2023-02-28T02:15:56;5.03;;;3.43;;
19973;SDS011;10148;47.694;9.442;2023-02-28T02:26:29;4.50;;;3.40;;
19973;SDS011;10148;47.694;9.442;2023-02-28T02:29:16;5.90;;;3.83;;
19973;SDS011;10148;47.694;9.442;2023-02-28T02:32:06;6.53;;;4.50;;
19973;SDS011;10148;47.694;9.442;2023-02-28T02:35:00;4.77;;;3.97;;
19973;SDS011;10148;47.694;9.442;2023-02-28T02:37:40;4.80;;;3.57;;
19973;SDS011;10148;47.694;9.442;2023-02-28T02:45:39;5.23;;;3.67;;
19973;SDS011;10148;47.694;9.442;2023-02-28T02:48:10;4.97;;;3.30;;
19973;SDS011;10148;47.694;9.442;2023-02-28T02:50:41;3.83;;;2.90;;
19973;SDS011;10148;47.694;9.442;2023-02-28T02:53:10;5.50;;;3.80;;
19973;SDS011;10148;47.694;9.442;2023-02-28T02:55:39;5.00;;;3.67;;
19973;SDS011;10148;47.694;9.442;2023-02-28T02:58:10;5.37;;;3.80;;
19973;SDS011;10148;47.694;9.442;2023-02-28T03:00:41;4.13;;;3.47;;
19973;SDS011;10148;47.694;9.442;2023-02-28T03:03:11;3.27;;;2.80;;
19973;SDS011;10148;47.694;9.442;2023-02-28T03:05:45;5.03;;;3.80;;
19973;SDS011;10148;47.694;9.442;2023-02-28T03:08:12;7.57;;;3.80;;
19973;SDS011;10148;47.694;9.442;2023-02-28T03:26:58;4.77;;;3.13;;
19973;SDS011;10148;47.694;9.442;2023-02-28T03:29:38;5.10;;;3.80;;
19973;SDS011;10148;47.694;9.442;2023-02-28T03:32:11;4.60;;;3.67;;
19973;SDS011;10148;47.694;9.442;2023-02-28T03:34:56;5.37;;;3.30;;
19973;SDS011;10148;47.694;9.442;2023-02-28T03:37:25;6.63;;;4.20;;
19973;SDS011;10148;47.694;9.442;2023-02-28T03:40:01;6.43;;;3.73;;
19973;SDS011;10148;47.694;9.442;2023-02-28T03:42:49;5.83;;;3.67;;
19973;SDS011;10148;47.694;9.442;2023-02-28T03:45:20;5.77;;;3.77;;
19973;SDS011;10148;47.694;9.442;2023-02-28T03:47:54;5.57;;;3.70;;
19973;SDS011;10148;47.694;9.442;2023-02-28T03:50:27;5.87;;;3.53;;
19973;SDS011;10148;47.694;9.442;2023-02-28T03:56:21;4.83;;;3.23;;
19973;SDS011;10148;47.694;9.442;2023-02-28T03:59:19;5.50;;;3.20;;
19973;SDS011;10148;47.694;9.442;2023-02-28T04:01:47;5.73;;;3.87;;
19973;SDS011;10148;47.694;9.442;2023-02-28T04:04:14;7.13;;;3.97;;
19973;SDS011;10148;47.694;9.442;2023-02-28T04:06:41;5.10;;;3.60;;
19973;SDS011;10148;47.694;9.442;2023-02-28T04:09:09;3.57;;;2.90;;
19973;SDS011;10148;47.694;9.442;2023-02-28T04:11:38;4.97;;;3.80;;
19973;SDS011;10148;47.694;9.442;2023-02-28T04:14:04;4.67;;;3.37;;
19973;SDS011;10148;47.694;9.442;2023-02-28T04:16:31;5.17;;;3.13;;
19973;SDS011;10148;47.694;9.442;2023-02-28T04:18:57;5.43;;;4.03;;
19973;SDS011;10148;47.694;9.442;2023-02-28T04:21:46;5.90;;;3.70;;
19973;SDS011;10148;47.694;9.442;2023-02-28T04:24:15;5.50;;;3.97;;
19973;SDS011;10148;47.694;9.442;2023-02-28T04:26:52;5.17;;;3.50;;
19973;SDS011;10148;47.694;9.442;2023-02-28T04:29:23;6.33;;;3.53;;
19973;SDS011;10148;47.694;9.442;2023-02-28T04:31:53;5.43;;;3.70;;
19973;SDS011;10148;47.694;9.442;2023-02-28T04:34:20;8.53;;;4.20;;
19973;SDS011;10148;47.694;9.442;2023-02-28T04:36:46;4.80;;;3.80;;
19973;SDS011;10148;47.694;9.442;2023-02-28T04:39:14;5.23;;;3.47;;
19973;SDS011;10148;47.694;9.442;2023-02-28T04:41:40;4.93;;;3.60;;
19973;SDS011;10148;47.694;9.442;2023-02-28T04:44:05;5.10;;;3.67;;
19973;SDS011;10148;47.694;9.442;2023-02-28T04:46:31;8.40;;;4.53;;
19973;SDS011;10148;47.694;9.442;2023-02-28T04:48:57;6.47;;;4.33;;
19973;SDS011;10148;47.694;9.442;2023-02-28T04:51:23;5.33;;;3.83;;
19973;SDS011;10148;47.694;9.442;2023-02-28T04:53:48;5.50;;;3.80;;
19973;SDS011;10148;47.694;9.442;2023-02-28T04:56:14;7.63;;;4.13;;
19973;SDS011;10148;47.694;9.442;2023-02-28T04:58:42;5.30;;;3.97;;
19973;SDS011;10148;47.694;9.442;2023-02-28T05:01:18;4.97;;;3.90;;
19973;SDS011;10148;47.694;9.442;2023-02-28T05:03:48;5.07;;;3.47;;
19973;SDS011;10148;47.694;9.442;2023-02-28T05:06:14;5.37;;;4.00;;
19973;SDS011;10148;47.694;9.442;2023-02-28T05:08:41;6.97;;;3.87;;
19973;SDS011;10148;47.694;9.442;2023-02-28T05:11:08;5.53;;;4.03;;
19973;SDS011;10148;47.694;9.442;2023-02-28T05:14:01;6.70;;;4.90;;
19973;SDS011;10148;47.694;9.442;2023-02-28T05:16:28;6.23;;;4.57;;
19973;SDS011;10148;47.694;9.442;2023-02-28T05:18:54;5.37;;;4.17;;
19973;SDS011;10148;47.694;9.442;2023-02-28T05:21:24;6.30;;;4.00;;
19973;SDS011;10148;47.694;9.442;2023-02-28T05:23:57;8.37;;;4.60;;
19973;SDS011;10148;47.694;9.442;2023-02-28T05:26:24;7.47;;;4.60;;
19973;SDS011;10148;47.694;9.442;2023-02-28T05:28:50;7.73;;;4.47;;
19973;SDS011;10148;47.694;9.442;2023-02-28T05:31:16;6.07;;;4.43;;
19973;SDS011;10148;47.694;9.442;2023-02-28T05:33:41;7.53;;;4.17;;
19973;SDS011;10148;47.694;9.442;2023-02-28T05:36:07;5.97;;;4.03;;
19973;SDS011;10148;47.694;9.442;2023-02-28T05:38:33;6.63;;;4.07;;
19973;SDS011;10148;47.694;9.442;2023-02-28T05:40:59;7.33;;;4.60;;
19973;SDS011;10148;47.694;9.442;2023-02-28T05:43:24;6.37;;;3.80;;
19973;SDS011;10148;47.694;9.442;2023-02-28T05:45:50;10.13;;;4.30;;
19973;SDS011;10148;47.694;9.442;2023-02-28T05:48:15;6.57;;;4.27;;
19973;SDS011;10148;47.694;9.442;2023-02-28T05:50:42;7.53;;;4.50;;
19973;SDS011;10148;47.694;9.442;2023-02-28T05:53:09;8.33;;;4.67;;
19973;SDS011;10148;47.694;9.442;2023-02-28T05:55:35;7.17;;;4.10;;
19973;SDS011;10148;47.694;9.442;2023-02-28T05:58:02;5.43;;;4.07;;
19973;SDS011;10148;47.694;9.442;2023-02-28T06:00:27;7.07;;;4.53;;
19973;SDS011;10148;47.694;9.442;2023-02-28T06:02:53;6.90;;;3.60;;
19973;SDS011;10148;47.694;9.442;2023-02-28T06:05:21;6.27;;;3.93;;
19973;SDS011;10148;47.694;9.442;2023-02-28T06:07:47;7.10;;;4.70;;
19973;SDS011;10148;47.694;9.442;2023-02-28T06:10:13;7.30;;;4.70;;
19973;SDS011;10148;47.694;9.442;2023-02-28T06:12:38;7.03;;;4.50;;
19973;SDS011;10148;47.694;9.442;2023-02-28T06:15:06;6.03;;;4.60;;
19973;SDS011;10148;47.694;9.442;2023-02-28T06:17:33;6.93;;;5.13;;
19973;SDS011;10148;47.694;9.442;2023-02-28T06:19:58;6.47;;;4.60;;
19973;SDS011;10148;47.694;9.442;2023-02-28T06:22:24;7.00;;;4.23;;
19973;SDS011;10148;47.694;9.442;2023-02-28T06:24:49;11.63;;;5.07;;
19973;SDS011;10148;47.694;9.442;2023-02-28T06:27:15;7.10;;;4.20;;
19973;SDS011;10148;47.694;9.442;2023-02-28T06:29:40;8.30;;;5.33;;
19973;SDS011;10148;47.694;9.442;2023-02-28T06:32:06;6.17;;;4.97;;
19973;SDS011;10148;47.694;9.442;2023-02-28T06:34:31;7.70;;;4.70;;
19973;SDS011;10148;47.694;9.442;2023-02-28T06:36:59;8.50;;;4.87;;
19973;SDS011;10148;47.694;9.442;2023-02-28T06:39:27;6.40;;;5.37;;
19973;SDS011;10148;47.694;9.442;2023-02-28T06:41:53;6.37;;;4.50;;
19973;SDS011;10148;47.694;9.442;2023-02-28T06:44:18;8.03;;;4.90;;
19973;SDS011;10148;47.694;9.442;2023-02-28T06:46:44;5.03;;;4.27;;
19973;SDS011;10148;47.694;9.442;2023-02-28T06:49:10;7.83;;;4.87;;
19973;SDS011;10148;47.694;9.442;2023-02-28T06:51:40;7.40;;;5.23;;
19973;SDS011;10148;47.694;9.442;2023-02-28T06:54:08;5.80;;;4.47;;
19973;SDS011;10148;47.694;9.442;2023-02-28T06:56:34;7.80;;;4.97;;
19973;SDS011;10148;47.694;9.442;2023-02-28T06:59:00;9.00;;;5.00;;
19973;SDS011;10148;47.694;9.442;2023-02-28T07:01:26;8.13;;;5.10;;
19973;SDS011;10148;47.694;9.442;2023-02-28T07:03:53;10.97;;;5.10;;
19973;SDS011;10148;47.694;9.442;2023-02-28T07:06:19;5.90;;;3.23;;
19973;SDS011;10148;47.694;9.442;2023-02-28T07:08:47;6.20;;;4.73;;
19973;SDS011;10148;47.694;9.442;2023-02-28T07:11:14;7.17;;;4.47;;
19973;SDS011;10148;47.694;9.442;2023-02-28T07:13:40;5.83;;;3.23;;
19973;SDS011;10148;47.694;9.442;2023-02-28T07:16:06;6.87;;;4.27;;
19973;SDS011;10148;47.694;9.442;2023-02-28T07:18:34;7.70;;;4.87;;
19973;SDS011;10148;47.694;9.442;2023-02-28T07:21:04;7.80;;;5.00;;
19973;SDS011;10148;47.694;9.442;2023-02-28T07:23:31;7.13;;;4.97;;
19973;SDS011;10148;47.694;9.442;2023-02-28T07:25:57;7.80;;;4.80;;
19973;SDS011;10148;47.694;9.442;2023-02-28T07:28:23;7.13;;;4.80;;
19973;SDS011;10148;47.694;9.442;2023-02-28T07:30:48;9.10;;;5.70;;
19973;SDS011;10148;47.694;9.442;2023-02-28T07:33:14;10.77;;;6.53;;
19973;SDS011;10148;47.694;9.442;2023-02-28T07:35:40;9.60;;;6.10;;
19973;SDS011;10148;47.694;9.442;2023-02-28T07:38:05;6.33;;;3.80;;
19973;SDS011;10148;47.694;9.442;2023-02-28T07:40:32;9.13;;;5.60;;
19973;SDS011;10148;47.694;9.442;2023-02-28T07:42:59;8.33;;;5.43;;
19973;SDS011;10148;47.694;9.442;2023-02-28T07:45:25;9.20;;;4.70;;
19973;SDS011;10148;47.694;9.442;2023-02-28T07:47:51;7.90;;;5.00;;
19973;SDS011;10148;47.694;9.442;2023-02-28T07:50:16;6.43;;;4.90;;
19973;SDS011;10148;47.694;9.442;2023-02-28T07:52:42;8.10;;;5.33;;
19973;SDS011;10148;47.694;9.442;2023-02-28T07:55:08;6.50;;;4.97;;
19973;SDS011;10148;47.694;9.442;2023-02-28T07:57:34;5.63;;;3.93;;
19973;SDS011;10148;47.694;9.442;2023-02-28T08:00:01;8.60;;;5.50;;
19973;SDS011;10148;47.694;9.442;2023-02-28T08:02:28;7.07;;;5.27;;
19973;SDS011;10148;47.694;9.442;2023-02-28T08:04:54;6.33;;;4.40;;
19973;SDS011;10148;47.694;9.442;2023-02-28T08:07:20;9.77;;;5.43;;
19973;SDS011;10148;47.694;9.442;2023-02-28T08:09:46;7.20;;;4.47;;
19973;SDS011;10148;47.694;9.442;2023-02-28T08:12:12;8.93;;;5.60;;
19973;SDS011;10148;47.694;9.442;2023-02-28T08:14:37;8.90;;;5.73;;
19973;SDS011;10148;47.694;9.442;2023-02-28T08:17:14;6.57;;;5.10;;
19973;SDS011;10148;47.694;9.442;2023-02-28T08:19:55;8.17;;;5.43;;
19973;SDS011;10148;47.694;9.442;2023-02-28T08:22:21;5.90;;;4.63;;
19973;SDS011;10148;47.694;9.442;2023-02-28T08:24:46;7.60;;;5.00;;
19973;SDS011;10148;47.694;9.442;2023-02-28T08:27:12;8.43;;;5.33;;
19973;SDS011;10148;47.694;9.442;2023-02-28T08:29:38;8.83;;;5.10;;
19973;SDS011;10148;47.694;9.442;2023-02-28T08:32:04;6.70;;;4.40;;
19973;SDS011;10148;47.694;9.442;2023-02-28T08:34:31;10.83;;;5.50;;
19973;SDS011;10148;47.694;9.442;2023-02-28T08:36:57;7.00;;;5.03;;
19973;SDS011;10148;47.694;9.442;2023-02-28T08:39:22;7.80;;;5.33;;
19973;SDS011;10148;47.694;9.442;2023-02-28T08:41:48;8.60;;;6.10;;
19973;SDS011;10148;47.694;9.442;2023-02-28T08:44:13;7.90;;;5.47;;
19973;SDS011;10148;47.694;9.442;2023-02-28T08:46:39;10.07;;;5.70;;
19973;SDS011;10148;47.694;9.442;2023-02-28T08:49:04;6.20;;;3.87;;
19973;SDS011;10148;47.694;9.442;2023-02-28T08:51:30;8.13;;;5.37;;
19973;SDS011;10148;47.694;9.442;2023-02-28T08:53:57;8.73;;;5.50;;
19973;SDS011;10148;47.694;9.442;2023-02-28T08:56:25;7.13;;;5.43;;
19973;SDS011;10148;47.694;9.442;2023-02-28T08:58:51;11.87;;;5.80;;
19973;SDS011;10148;47.694;9.442;2023-02-28T09:01:21;8.73;;;5.57;;
19973;SDS011;10148;47.694;9.442;2023-02-28T09:03:49;8.70;;;5.90;;
19973;SDS011;10148;47.694;9.442;2023-02-28T09:06:16;8.93;;;5.40;;
19973;SDS011;10148;47.694;9.442;2023-02-28T09:08:43;8.33;;;5.10;;
19973;SDS011;10148;47.694;9.442;2023-02-28T09:11:10;9.23;;;5.47;;
19973;SDS011;10148;47.694;9.442;2023-02-28T09:13:36;11.23;;;6.17;;
19973;SDS011;10148;47.694;9.442;2023-02-28T09:16:02;7.97;;;5.67;;
19973;SDS011;10148;47.694;9.442;2023-02-28T09:18:30;8.90;;;4.87;;
19973;SDS011;10148;47.694;9.442;2023-02-28T09:20:56;7.20;;;5.27;;
19973;SDS011;10148;47.694;9.442;2023-02-28T09:23:23;8.83;;;5.10;;
19973;SDS011;10148;47.694;9.442;2023-02-28T09:25:53;6.90;;;4.63;;
19973;SDS011;10148;47.694;9.442;2023-02-28T09:28:20;9.20;;;5.30;;
19973;SDS011;10148;47.694;9.442;2023-02-28T09:30:48;10.47;;;5.63;;
19973;SDS011;10148;47.694;9.442;2023-02-28T09:33:15;7.23;;;4.90;;
19973;SDS011;10148;47.694;9.442;2023-02-28T09:35:42;9.40;;;5.20;;
19973;SDS011;10148;47.694;9.442;2023-02-28T09:38:08;8.27;;;5.50;;
19973;SDS011;10148;47.694;9.442;2023-02-28T09:40:35;7.67;;;5.40;;
19973;SDS011;10148;47.694;9.442;2023-02-28T09:43:12;7.17;;;5.40;;
19973;SDS011;10148;47.694;9.442;2023-02-28T09:48:33;8.80;;;5.47;;
19973;SDS011;10148;47.694;9.442;2023-02-28T09:53:35;8.83;;;5.57;;
19973;SDS011;10148;47.694;9.442;2023-02-28T09:56:05;9.73;;;5.77;;
19973;SDS011;10148;47.694;9.442;2023-02-28T09:58:37;9.30;;;5.53;;
19973;SDS011;10148;47.694;9.442;2023-02-28T10:07:13;8.87;;;5.73;;
19973;SDS011;10148;47.694;9.442;2023-02-28T10:09:50;7.73;;;5.27;;
19973;SDS011;10148;47.694;9.442;2023-02-28T10:12:21;9.17;;;5.33;;
19973;SDS011;10148;47.694;9.442;2023-02-28T10:14:47;7.53;;;5.40;;
19973;SDS011;10148;47.694;9.442;2023-02-28T10:17:18;7.83;;;5.33;;
19973;SDS011;10148;47.694;9.442;2023-02-28T10:19:50;8.30;;;5.53;;
19973;SDS011;10148;47.694;9.442;2023-02-28T10:23:08;8.77;;;5.70;;
19973;SDS011;10148;47.694;9.442;2023-02-28T10:25:23;7.97;;;5.67;;
19973;SDS011;10148;47.694;9.442;2023-02-28T10:28:33;8.87;;;5.60;;
19973;SDS011;10148;47.694;9.442;2023-02-28T10:30:42;10.53;;;5.53;;
19973;SDS011;10148;47.694;9.442;2023-02-28T10:33:15;7.57;;;5.20;;
19973;SDS011;10148;47.694;9.442;2023-02-28T10:35:50;8.17;;;5.53;;
19973;SDS011;10148;47.694;9.442;2023-02-28T10:38:19;10.43;;;6.87;;
19973;SDS011;10148;47.694;9.442;2023-02-28T10:41:03;9.43;;;5.57;;
19973;SDS011;10148;47.694;9.442;2023-02-28T10:43:30;10.67;;;6.03;;
19973;SDS011;10148;47.694;9.442;2023-02-28T10:46:01;9.23;;;6.20;;
19973;SDS011;10148;47.694;9.442;2023-02-28T10:51:02;9.70;;;6.40;;
19973;SDS011;10148;47.694;9.442;2023-02-28T10:53:34;9.10;;;6.50;;
19973;SDS011;10148;47.694;9.442;2023-02-28T11:01:12;9.40;;;6.27;;
19973;SDS011;10148;47.694;9.442;2023-02-28T11:03:40;9.37;;;5.87;;
19973;SDS011;10148;47.694;9.442;2023-02-28T11:06:07;10.03;;;6.70;;
19973;SDS011;10148;47.694;9.442;2023-02-28T11:08:49;10.20;;;6.00;;
19973;SDS011;10148;47.694;9.442;2023-02-28T11:11:20;11.23;;;6.50;;
19973;SDS011;10148;47.694;9.442;2023-02-28T11:13:50;8.87;;;5.93;;
19973;SDS011;10148;47.694;9.442;2023-02-28T11:16:18;12.23;;;7.17;;
19973;SDS011;10148;47.694;9.442;2023-02-28T11:18:47;9.83;;;6.00;;
19973;SDS011;10148;47.694;9.442;2023-02-28T11:21:16;10.10;;;6.40;;
19973;SDS011;10148;47.694;9.442;2023-02-28T11:23:54;9.23;;;6.40;;
19973;SDS011;10148;47.694;9.442;2023-02-28T11:26:36;10.43;;;6.27;;
19973;SDS011;10148;47.694;9.442;2023-02-28T11:29:11;10.83;;;7.13;;
19973;SDS011;10148;47.694;9.442;2023-02-28T11:31:42;8.50;;;6.50;;
19973;SDS011;10148;47.694;9.442;2023-02-28T11:34:24;8.70;;;6.00;;
19973;SDS011;10148;47.694;9.442;2023-02-28T11:36:51;8.70;;;5.97;;
19973;SDS011;10148;47.694;9.442;2023-02-28T11:39:18;8.50;;;6.07;;
19973;SDS011;10148;47.694;9.442;2023-02-28T11:44:53;13.43;;;6.87;;
19973;SDS011;10148;47.694;9.442;2023-02-28T11:56:03;10.13;;;6.87;;
19973;SDS011;10148;47.694;9.442;2023-02-28T12:10:10;11.37;;;7.03;;
19973;SDS011;10148;47.694;9.442;2023-02-28T12:18:17;9.43;;;6.27;;
19973;SDS011;10148;47.694;9.442;2023-02-28T12:24:13;10.50;;;6.77;;
19973;SDS011;10148;47.694;9.442;2023-02-28T12:26:41;11.63;;;7.40;;
19973;SDS011;10148;47.694;9.442;2023-02-28T12:29:10;10.00;;;6.77;;
19973;SDS011;10148;47.694;9.442;2023-02-28T12:31:42;13.43;;;7.87;;
19973;SDS011;10148;47.694;9.442;2023-02-28T12:34:47;13.37;;;7.73;;
19973;SDS011;10148;47.694;9.442;2023-02-28T12:37:37;11.43;;;7.20;;
19973;SDS011;10148;47.694;9.442;2023-02-28T12:40:12;12.43;;;7.23;;
19973;SDS011;10148;47.694;9.442;2023-02-28T12:42:44;15.83;;;7.80;;
19973;SDS011;10148;47.694;9.442;2023-02-28T12:45:23;12.13;;;7.10;;
19973;SDS011;10148;47.694;9.442;2023-02-28T12:47:52;11.03;;;7.70;;
19973;SDS011;10148;47.694;9.442;2023-02-28T12:50:25;10.87;;;6.60;;
19973;SDS011;10148;47.694;9.442;2023-02-28T12:53:06;13.63;;;8.40;;
19973;SDS011;10148;47.694;9.442;2023-02-28T12:55:47;12.63;;;8.47;;
19973;SDS011;10148;47.694;9.442;2023-02-28T13:11:31;13.10;;;8.27;;
19973;SDS011;10148;47.694;9.442;2023-02-28T13:14:22;11.43;;;7.70;;
19973;SDS011;10148;47.694;9.442;2023-02-28T13:17:10;10.67;;;7.30;;
19973;SDS011;10148;47.694;9.442;2023-02-28T13:19:39;11.40;;;7.47;;
19973;SDS011;10148;47.694;9.442;2023-02-28T13:22:17;13.07;;;8.40;;
19973;SDS011;10148;47.694;9.442;2023-02-28T13:26:05;11.57;;;7.60;;
19973;SDS011;10148;47.694;9.442;2023-02-28T13:28:07;12.57;;;8.40;;
19973;SDS011;10148;47.694;9.442;2023-02-28T13:36:01;12.17;;;7.53;;
19973;SDS011;10148;47.694;9.442;2023-02-28T13:38:47;12.80;;;8.67;;
19973;SDS011;10148;47.694;9.442;2023-02-28T13:41:40;12.23;;;7.60;;
19973;SDS011;10148;47.694;9.442;2023-02-28T13:49:28;10.73;;;7.27;;
19973;SDS011;10148;47.694;9.442;2023-02-28T14:09:00;10.90;;;6.87;;
19973;SDS011;10148;47.694;9.442;2023-02-28T14:11:29;11.27;;;6.63;;
19973;SDS011;10148;47.694;9.442;2023-02-28T14:13:57;13.53;;;7.53;;
19973;SDS011;10148;47.694;9.442;2023-02-28T14:16:24;13.90;;;8.40;;
19973;SDS011;10148;47.694;9.442;2023-02-28T14:19:01;12.50;;;7.73;;
19973;SDS011;10148;47.694;9.442;2023-02-28T14:21:35;11.20;;;6.13;;
19973;SDS011;10148;47.694;9.442;2023-02-28T14:33:00;13.03;;;8.27;;
19973;SDS011;10148;47.694;9.442;2023-02-28T14:38:23;14.53;;;8.83;;
19973;SDS011;10148;47.694;9.442;2023-02-28T14:40:53;13.50;;;9.63;;
19973;SDS011;10148;47.694;9.442;2023-02-28T14:43:22;14.40;;;9.60;;
19973;SDS011;10148;47.694;9.442;2023-02-28T14:45:53;20.27;;;10.23;;
19973;SDS011;10148;47.694;9.442;2023-02-28T14:48:22;13.67;;;8.60;;
19973;SDS011;10148;47.694;9.442;2023-02-28T14:50:51;16.60;;;8.70;;
19973;SDS011;10148;47.694;9.442;2023-02-28T14:53:20;14.90;;;9.17;;
19973;SDS011;10148;47.694;9.442;2023-02-28T14:55:47;15.07;;;9.53;;
19973;SDS011;10148;47.694;9.442;2023-02-28T15:00:51;13.80;;;9.30;;
19973;SDS011;10148;47.694;9.442;2023-02-28T15:03:20;16.87;;;10.00;;
19973;SDS011;10148;47.694;9.442;2023-02-28T15:05:58;14.53;;;9.50;;
19973;SDS011;10148;47.694;9.442;2023-02-28T15:08:25;13.10;;;8.60;;
19973;SDS011;10148;47.694;9.442;2023-02-28T15:13:25;14.97;;;9.23;;
19973;SDS011;10148;47.694;9.442;2023-02-28T15:16:06;14.27;;;7.67;;
19973;SDS011;10148;47.694;9.442;2023-02-28T15:21:12;13.63;;;8.80;;
19973;SDS011;10148;47.694;9.442;2023-02-28T15:23:44;16.47;;;10.27;;
19973;SDS011;10148;47.694;9.442;2023-02-28T15:26:16;14.13;;;8.73;;
19973;SDS011;10148;47.694;9.442;2023-02-28T15:28:46;16.30;;;10.13;;
19973;SDS011;10148;47.694;9.442;2023-02-28T15:31:19;14.93;;;9.77;;
19973;SDS011;10148;47.694;9.442;2023-02-28T15:33:57;16.60;;;9.43;;
19973;SDS011;10148;47.694;9.442;2023-02-28T15:36:32;15.93;;;10.00;;
19973;SDS011;10148;47.694;9.442;2023-02-28T15:39:02;14.83;;;9.07;;
19973;SDS011;10148;47.694;9.442;2023-02-28T15:41:35;16.20;;;9.10;;
19973;SDS011;10148;47.694;9.442;2023-02-28T15:46:57;17.90;;;9.77;;
19973;SDS011;10148;47.694;9.442;2023-02-28T15:49:24;15.27;;;8.63;;
19973;SDS011;10148;47.694;9.442;2023-02-28T15:51:50;13.00;;;8.60;;
19973;SDS011;10148;47.694;9.442;2023-02-28T15:54:23;18.33;;;9.83;;
19973;SDS011;10148;47.694;9.442;2023-02-28T15:56:52;17.07;;;9.40;;
19973;SDS011;10148;47.694;9.442;2023-02-28T15:59:27;15.03;;;9.30;;
19973;SDS011;10148;47.694;9.442;2023-02-28T16:04:56;14.33;;;7.83;;
19973;SDS011;10148;47.694;9.442;2023-02-28T16:07:27;15.63;;;9.97;;
19973;SDS011;10148;47.694;9.442;2023-02-28T16:09:53;13.13;;;7.63;;
19973;SDS011;10148;47.694;9.442;2023-02-28T16:12:19;13.27;;;9.00;;
19973;SDS011;10148;47.694;9.442;2023-02-28T16:14:47;11.27;;;6.73;;
19973;SDS011;10148;47.694;9.442;2023-02-28T16:17:20;12.63;;;8.40;;
19973;SDS011;10148;47.694;9.442;2023-02-28T16:19:47;14.03;;;8.93;;
19973;SDS011;10148;47.694;9.442;2023-02-28T16:22:13;15.33;;;9.57;;
19973;SDS011;10148;47.694;9.442;2023-02-28T16:24:38;12.07;;;8.03;;
19973;SDS011;10148;47.694;9.442;2023-02-28T16:27:05;8.47;;;5.20;;
19973;SDS011;10148;47.694;9.442;2023-02-28T16:29:32;14.57;;;9.10;;
19973;SDS011;10148;47.694;9.442;2023-02-28T16:32:01;12.37;;;8.17;;
19973;SDS011;10148;47.694;9.442;2023-02-28T16:34:28;13.80;;;8.37;;
19973;SDS011;10148;47.694;9.442;2023-02-28T16:36:54;15.10;;;8.00;;
19973;SDS011;10148;47.694;9.442;2023-02-28T16:39:20;12.03;;;7.73;;
19973;SDS011;10148;47.694;9.442;2023-02-28T16:41:45;15.33;;;9.40;;
19973;SDS011;10148;47.694;9.442;2023-02-28T16:44:14;14.33;;;8.27;;
19973;SDS011;10148;47.694;9.442;2023-02-28T16:46:51;12.17;;;8.20;;
19973;SDS011;10148;47.694;9.442;2023-02-28T16:49:16;12.70;;;7.63;;
19973;SDS011;10148;47.694;9.442;2023-02-28T16:51:42;15.00;;;8.47;;
19973;SDS011;10148;47.694;9.442;2023-02-28T16:54:07;13.90;;;8.00;;
19973;SDS011;10148;47.694;9.442;2023-02-28T16:56:33;14.23;;;8.40;;
19973;SDS011;10148;47.694;9.442;2023-02-28T16:59:00;12.20;;;8.40;;
19973;SDS011;10148;47.694;9.442;2023-02-28T17:01:26;12.50;;;8.00;;
19973;SDS011;10148;47.694;9.442;2023-02-28T17:03:52;12.23;;;8.00;;
19973;SDS011;10148;47.694;9.442;2023-02-28T17:06:25;14.83;;;8.37;;
19973;SDS011;10148;47.694;9.442;2023-02-28T17:08:55;11.87;;;7.40;;
19973;SDS011;10148;47.694;9.442;2023-02-28T17:11:22;14.70;;;8.97;;
19973;SDS011;10148;47.694;9.442;2023-02-28T17:13:48;18.00;;;9.43;;
19973;SDS011;10148;47.694;9.442;2023-02-28T17:16:20;13.40;;;8.47;;
19973;SDS011;10148;47.694;9.442;2023-02-28T17:18:51;14.50;;;7.83;;
19973;SDS011;10148;47.694;9.442;2023-02-28T17:21:19;13.50;;;8.80;;
19973;SDS011;10148;47.694;9.442;2023-02-28T17:23:44;16.57;;;9.30;;
19973;SDS011;10148;47.694;9.442;2023-02-28T17:26:13;15.97;;;9.40;;
19973;SDS011;10148;47.694;9.442;2023-02-28T17:28:40;16.67;;;9.23;;
19973;SDS011;10148;47.694;9.442;2023-02-28T17:31:07;15.63;;;9.33;;